D/T METAR WX W/DIR W/SPE G/SPE TEMP DEWP
19/03/19 21:20 EGAA 192120Z 26009KT 9999 BKN012 09/08 Q1026 W (260°) 10.4mph 9°C 8°C
19/03/19 20:50 EGAA 192050Z 25008KT 9999 SCT016 09/08 Q1026 WSW (250°) 9.2mph 9°C 8°C
19/03/19 19:50 EGAA 191950Z 30006KT 260V330 9999 BKN013 10/08 Q1025 WNW (300°) 6.9mph 10°C 8°C
19/03/19 19:20 EGAA 191920Z 27011KT 9999 BKN017 10/08 Q1025 W (270°) 12.7mph 10°C 8°C
19/03/19 18:20 EGAA 191820Z 24007KT 9999 BKN015 11/08 Q1024 WSW (240°) 8.1mph 11°C 8°C
19/03/19 17:50 EGAA 191750Z 26010KT 9999 BKN019 11/08 Q1024 W (260°) 11.5mph 11°C 8°C
19/03/19 17:20 EGAA 191720Z 27014KT 9999 SCT027 BKN033 11/08 Q1024 W (270°) 16.1mph 11°C 8°C
19/03/19 16:50 EGAA 191650Z 25010KT 230V290 9999 FEW022 12/09 Q1023 WSW (250°) 11.5mph 12°C 9°C
19/03/19 16:20 EGAA 191620Z 28010KT 9999 SCT019 BKN025 12/08 Q1023 W (280°) 11.5mph 12°C 8°C
19/03/19 15:50 EGAA 191550Z 28011KT 9999 FEW019 BKN026 12/09 Q1023 W (280°) 12.7mph 12°C 9°C
19/03/19 15:20 EGAA 191520Z 23008KT 200V260 9999 BKN011 BKN015 13/11 Q1023 SW (230°) 9.2mph 13°C 11°C
19/03/19 14:50 EGAA 191450Z 23010KT 210V270 9999 FEW007 BKN017 12/10 Q1022 SW (230°) 11.5mph 12°C 10°C
19/03/19 13:50 EGAA 191350Z 23010KT 9999 BKN009 BKN013 11/09 Q1022 SW (230°) 11.5mph 11°C 9°C
19/03/19 13:20 EGAA 191320Z 23013KT 210V270 9999 BKN013 11/10 Q1022 SW (230°) 15.0mph 11°C 10°C
19/03/19 12:20 EGAA 191220Z 22009KT 9999 BKN007 BKN011 10/09 Q1022 SW (220°) 10.4mph 10°C 9°C
19/03/19 11:50 EGAA 191150Z 22011KT 9999 BKN006 10/09 Q1022 SW (220°) 12.7mph 10°C 9°C
19/03/19 10:50 EGAA 191050Z 20009KT 9999 BKN006 09/08 Q1022 SSW (200°) 10.4mph 9°C 8°C
19/03/19 10:20 EGAA 191020Z 20008KT 170V230 8000 BKN005 BKN008 08/07 Q1022 SSW (200°) 9.2mph 8°C 7°C
19/03/19 09:20 EGAA 190920Z 20007KT 160V220 9999 BKN003 BKN006 08/07 Q1022 SSW (200°) 8.1mph 8°C 7°C
19/03/19 08:50 EGAA 190850Z 19008KT 8000 BKN005 BKN021 07/07 Q1022 S (190°) 9.2mph 7°C 7°C
19/03/19 08:20 EGAA 190820Z 19007KT 5000 DZ SCT003 BKN012 07/06 Q1022 DZ S (190°) 8.1mph 7°C 6°C
19/03/19 07:50 EGAA 190750Z 19008KT 6000 SCT003 BKN018 07/06 Q1022 S (190°) 9.2mph 7°C 6°C
19/03/19 07:20 EGAA 190720Z 20007KT 4400 -RA BKN003 OVC006 07/06 Q1022 REDZ -RA SSW (200°) 8.1mph 7°C 6°C
19/03/19 06:50 EGAA 190650Z 20007KT 5000 DZ BKN004 BKN007 OVC010 07/06 Q1022 DZ SSW (200°) 8.1mph 7°C 6°C
19/03/19 06:20 EGAA 190620Z 20006KT 4900 DZ SCT009 BKN025 07/06 Q1022 DZ SSW (200°) 6.9mph 7°C 6°C
19/03/19 05:50 EGAA 190550Z 20007KT 9999 FEW026 BKN032 07/06 Q1022 SSW (200°) 8.1mph 7°C 6°C
19/03/19 05:20 EGAA 190520Z 21006KT 9000 RA FEW024 SCT048 07/06 Q1022 RA SSW (210°) 6.9mph 7°C 6°C
19/03/19 04:50 EGAA 190450Z 21007KT 9999 FEW007 07/06 Q1022 SSW (210°) 8.1mph 7°C 6°C
19/03/19 04:20 EGAA 190420Z AUTO 21006KT 9999 FEW007/// 07/05 Q1022 SSW (210°) 6.9mph 7°C 5°C
19/03/19 03:50 EGAA 190350Z AUTO 23008KT 9999 SCT026/// 07/06 Q1022 SW (230°) 9.2mph 7°C 6°C
19/03/19 03:20 EGAA 190320Z AUTO 22006KT 9999 OVC024/// 07/07 Q1022 SW (220°) 6.9mph 7°C 7°C
19/03/19 02:50 EGAA 190250Z 22006KT 9999 BKN027 07/06 Q1022 SW (220°) 6.9mph 7°C 6°C
19/03/19 02:20 EGAA 190220Z 22004KT 8000 FEW009 BKN027 07/06 Q1022 SW (220°) 4.6mph 7°C 6°C
19/03/19 01:20 EGAA 190120Z 22005KT 7000 SCT002 BKN005 BKN017 08/07 Q1022 SW (220°) 5.8mph 8°C 7°C
19/03/19 00:50 EGAA 190050Z 23009KT 9000 SCT002 BKN008 BKN015 08/07 Q1022 SW (230°) 10.4mph 8°C 7°C
19/03/19 00:20 EGAA 190020Z 23007KT 4900 -DZ FEW002 SCT006 BKN009 08/07 Q1022 REDZ -DZ SW (230°) 8.1mph 8°C 7°C
18/03/19 23:50 EGAA 182350Z 22007KT 9999 SCT009 BKN023 08/07 Q1022 SW (220°) 8.1mph 8°C 7°C
18/03/19 23:20 EGAA 182320Z 22006KT 9999 FEW015 SCT025 BKN049 08/07 Q1022 SW (220°) 6.9mph 8°C 7°C
18/03/19 22:50 EGAA 182250Z 22007KT 9999 BKN013 BKN018 OVC047 08/07 Q1022 SW (220°) 8.1mph 8°C 7°C
18/03/19 21:50 EGAA 182150Z 22005KT 9999 SCT011 BKN016 BKN022 08/07 Q1022 SW (220°) 5.8mph 8°C 7°C
18/03/19 21:20 EGAA 182120Z 24006KT 9999 BKN017 BKN033 08/07 Q1022 WSW (240°) 6.9mph 8°C 7°C
18/03/19 20:50 EGAA 182050Z 27007KT 9999 SCT016 BKN028 08/07 Q1021 W (270°) 8.1mph 8°C 7°C
18/03/19 20:20 EGAA 182020Z 25007KT 9999 SCT016 BKN023 08/07 Q1021 WSW (250°) 8.1mph 8°C 7°C
18/03/19 19:50 EGAA 181950Z 24004KT 9999 FEW014 SCT021 08/07 Q1021 WSW (240°) 4.6mph 8°C 7°C
18/03/19 19:20 EGAA 181920Z 24004KT 9999 BKN017 BKN025 08/07 Q1021 WSW (240°) 4.6mph 8°C 7°C
18/03/19 18:50 EGAA 181850Z 29004KT 9999 SCT022 BKN047 09/07 Q1020 WNW (290°) 4.6mph 9°C 7°C
18/03/19 18:20 EGAA 181820Z 29006KT 9999 SCT031 BKN036 09/07 Q1020 WNW (290°) 6.9mph 9°C 7°C
18/03/19 17:50 EGAA 181750Z 28007KT 9999 -RA SCT034 BKN040 09/07 Q1020 -RA W (280°) 8.1mph 9°C 7°C
18/03/19 17:20 EGAA 181720Z 27006KT 9999 FEW028 BKN038 10/08 Q1019 W (270°) 6.9mph 10°C 8°C
18/03/19 16:50 EGAA 181650Z 27006KT 9999 FEW033 BKN039 10/08 Q1019 W (270°) 6.9mph 10°C 8°C
18/03/19 16:20 EGAA 181620Z 29007KT 9999 FEW033 BKN036 10/08 Q1019 WNW (290°) 8.1mph 10°C 8°C
18/03/19 15:50 EGAA 181550Z 30004KT 9999 FEW013 SCT035 10/07 Q1018 WNW (300°) 4.6mph 10°C 7°C
18/03/19 15:20 EGAA 181520Z VRB03KT 9999 SCT018 BKN029 11/08 Q1018 N (0°) 3.5mph 11°C 8°C
18/03/19 14:50 EGAA 181450Z VRB03KT 9999 SCT014 SCT025 10/07 Q1018 N (0°) 3.5mph 10°C 7°C
18/03/19 14:20 EGAA 181420Z 31005KT 280V350 9999 SCT012 BKN027 10/08 Q1018 NW (310°) 5.8mph 10°C 8°C
18/03/19 13:20 EGAA 181320Z 23008KT 9999 FEW027 BKN033 10/09 Q1017 SW (230°) 9.2mph 10°C 9°C
18/03/19 12:50 EGAA 181250Z 23010KT 210V290 9999 FEW002 BKN006 BKN030 09/08 Q1017 SW (230°) 11.5mph 9°C 8°C
18/03/19 12:20 EGAA 181220Z 23011KT 9999 BKN004 BKN007 08/07 Q1017 SW (230°) 12.7mph 8°C 7°C
18/03/19 11:50 EGAA 181150Z 22009KT 8000 -RA FEW006 OVC009 07/06 Q1017 -RA SW (220°) 10.4mph 7°C 6°C
18/03/19 11:20 EGAA 181120Z 22009KT 9999 BKN008 BKN013 07/06 Q1017 SW (220°) 10.4mph 7°C 6°C
18/03/19 10:50 EGAA 181050Z 22010KT 9999 SCT005 BKN009 07/06 Q1017 SW (220°) 11.5mph 7°C 6°C
18/03/19 09:50 EGAA 180950Z 23010KT 9999 SCT005 BKN008 06/05 Q1016 SW (230°) 11.5mph 6°C 5°C
18/03/19 09:20 EGAA 180920Z 22009KT 9999 BKN007 06/05 Q1016 SW (220°) 10.4mph 6°C 5°C
18/03/19 08:50 EGAA 180850Z 22009KT 9999 -RA BKN007 BKN010 05/04 Q1016 -RA SW (220°) 10.4mph 5°C 4°C
18/03/19 07:50 EGAA 180750Z 21008KT 9999 -RA SCT006 BKN010 BKN014 05/04 Q1016 -RA SSW (210°) 9.2mph 5°C 4°C
18/03/19 06:50 EGAA 180650Z 22007KT 9999 -RA FEW007 BKN012 05/03 Q1016 -RA SW (220°) 8.1mph 5°C 3°C
18/03/19 06:20 EGAA 180620Z 22008KT 9999 -RA BKN010 05/03 Q1016 -RA SW (220°) 9.2mph 5°C 3°C
18/03/19 05:50 EGAA 180550Z 22007KT 9999 -RA BKN007 OVC010 05/03 Q1016 -RA SW (220°) 8.1mph 5°C 3°C
18/03/19 05:20 EGAA 180520Z 24008KT 220V300 9999 -RA SCT009 BKN014 OVC027 05/03 Q1016 -RA WSW (240°) 9.2mph 5°C 3°C
18/03/19 04:50 EGAA 180450Z 24008KT 220V290 9999 -RA SCT011 BKN016 OVC022 05/03 Q1016 -RA WSW (240°) 9.2mph 5°C 3°C
18/03/19 04:20 EGAA 180420Z AUTO 23006KT 9999 -RA FEW019/// SCT026/// BKN032/// 05/03 Q1016 -RA SW (230°) 6.9mph 5°C 3°C
18/03/19 03:50 EGAA 180350Z AUTO 23007KT 9999 SCT015/// BKN034/// BKN039/// 05/03 Q1016 SW (230°) 8.1mph 5°C 3°C
18/03/19 03:20 EGAA 180320Z 21006KT 9999 -RA FEW023 BKN044 05/03 Q1016 -RA SSW (210°) 6.9mph 5°C 3°C
18/03/19 02:50 EGAA 180250Z 22007KT 190V250 9999 FEW026 05/03 Q1016 SW (220°) 8.1mph 5°C 3°C
18/03/19 02:20 EGAA 180220Z 21006KT 9999 SCT027 BKN044 05/03 Q1016 SSW (210°) 6.9mph 5°C 3°C
18/03/19 01:50 EGAA 180150Z 22005KT 9999 BKN026 BKN033 05/03 Q1016 SW (220°) 5.8mph 5°C 3°C
18/03/19 01:20 EGAA 180120Z 22005KT 9999 BKN042 04/03 Q1016 SW (220°) 5.8mph 4°C 3°C
18/03/19 00:50 EGAA 180050Z 26008KT 9999 FEW022 SCT035 04/02 Q1016 W (260°) 9.2mph 4°C 2°C
18/03/19 00:20 EGAA 180020Z 26008KT 9999 FEW035 SCT049 04/03 Q1016 W (260°) 9.2mph 4°C 3°C
17/03/19 23:20 EGAA 172320Z 27009KT 9999 FEW038 SCT046 05/02 Q1016 W (270°) 10.4mph 5°C 2°C
17/03/19 22:50 EGAA 172250Z 28011KT 9999 FEW045 05/03 Q1016 W (280°) 12.7mph 5°C 3°C
17/03/19 22:20 EGAA 172220Z 27013KT 9999 SCT033 04/02 Q1015 W (270°) 15.0mph 4°C 2°C
17/03/19 21:50 EGAA 172150Z 24009KT CAVOK 04/02 Q1015 WSW (240°) 10.4mph 4°C 2°C
17/03/19 21:20 EGAA 172120Z 25006KT 9999 FEW030 04/01 Q1015 WSW (250°) 6.9mph 4°C 1°C
17/03/19 20:50 EGAA 172050Z 28011KT 9999 FEW030 SCT043 05/02 Q1014 W (280°) 12.7mph 5°C 2°C
17/03/19 19:50 EGAA 171950Z 29007KT 9999 FEW026 05/03 Q1013 WNW (290°) 8.1mph 5°C 3°C
17/03/19 18:50 EGAA 171850Z 31009KT 9999 SCT024 06/03 Q1013 NW (310°) 10.4mph 6°C 3°C
17/03/19 18:20 EGAA 171820Z 30016KT 9999 -SHRA FEW018 SCT025 06/03 Q1012 -SHRA WNW (300°) 18.4mph 6°C 3°C
17/03/19 17:50 EGAA 171750Z 33016G28KT 9999 FEW013 SCT017 07/03 Q1011 NNW (330°) 18.4mph 32.2mph 7°C 3°C
17/03/19 16:50 EGAA 171650Z 32013KT 9999 FEW015 07/03 Q1010 RERA NW (320°) 15.0mph 7°C 3°C
17/03/19 16:20 EGAA 171620Z 33018G28KT 300V360 9000 -RA FEW021 SCT027 08/03 Q1009 -RA NNW (330°) 20.7mph 32.2mph 8°C 3°C
17/03/19 15:50 EGAA 171550Z 31015KT 9999 SCT029 09/03 Q1008 NW (310°) 17.3mph 9°C 3°C
17/03/19 14:50 EGAA 171450Z 33017G30KT 9999 SCT030 09/02 Q1007 NNW (330°) 19.6mph 34.5mph 9°C 2°C
17/03/19 14:20 EGAA 171420Z 32020G30KT 9999 SCT031 10/04 Q1006 NW (320°) 23.0mph 34.5mph 10°C 4°C
17/03/19 13:20 EGAA 171320Z 33018G28KT 9999 FEW023 BKN036 09/03 Q1004 NNW (330°) 20.7mph 32.2mph 9°C 3°C
17/03/19 12:50 EGAA 171250Z 32016KT 290V360 9999 FEW008 SCT027 08/04 Q1004 NW (320°) 18.4mph 8°C 4°C
17/03/19 12:20 EGAA 171220Z 33016KT 9999 FEW023 BKN028 09/04 Q1003 NNW (330°) 18.4mph 9°C 4°C
17/03/19 11:50 EGAA 171150Z 32012KT 9999 FEW017 BKN027 08/04 Q1002 NW (320°) 13.8mph 8°C 4°C
17/03/19 11:20 EGAA 171120Z 27009KT 9999 SCT016 BKN023 06/04 Q1002 W (270°) 10.4mph 6°C 4°C
17/03/19 10:50 EGAA 171050Z 27012KT 9999 FEW009 BKN015 05/04 Q1001 W (270°) 13.8mph 5°C 4°C
17/03/19 10:20 EGAA 171020Z 26012KT 9999 SCT007 BKN014 04/03 Q1001 W (260°) 13.8mph 4°C 3°C
17/03/19 09:50 EGAA 170950Z 23012KT 9999 -RA FEW009 BKN030 03/02 Q1000 -RA SW (230°) 13.8mph 3°C 2°C
17/03/19 09:20 EGAA 170920Z 23011KT 9999 -RA BKN006 BKN009 OVC015 02/01 Q1000 RERA -RA SW (230°) 12.7mph 2°C 1°C
17/03/19 08:50 EGAA 170850Z 23013KT 9999 FEW007 BKN039 03/02 Q1000 SW (230°) 15.0mph 3°C 2°C
17/03/19 07:50 EGAA 170750Z 23010KT 9999 SCT008 BKN033 02/01 Q0999 SW (230°) 11.5mph 2°C 1°C
17/03/19 07:20 EGAA 170720Z 25014KT 9999 FEW008 SCT013 01/00 Q0999 WSW (250°) 16.1mph 1°C 0°C
17/03/19 06:50 EGAA 170650Z 24013KT 9999 SCT009 BKN014 BKN034 02/00 Q0999 WSW (240°) 15.0mph 2°C 0°C
17/03/19 06:20 EGAA 170620Z 23009KT 9999 SCT009 SCT014 BKN046 01/00 Q0999 SW (230°) 10.4mph 1°C 0°C
17/03/19 05:50 EGAA 170550Z 25008KT 9999 BKN007 01/M00 Q0998 WSW (250°) 9.2mph 1°C 0°C
17/03/19 05:20 EGAA 170520Z 26013KT 250V310 9999 -RA SCT009 BKN013 01/M00 Q0998 -RA W (260°) 15.0mph 1°C 0°C
17/03/19 04:50 EGAA 170450Z AUTO 24009KT 9999 SCT009/// BKN014/// 01/M00 Q0998 WSW (240°) 10.4mph 1°C 0°C
17/03/19 04:20 EGAA 170420Z AUTO 25012KT 9999 NCD 01/M00 Q0997 WSW (250°) 13.8mph 1°C 0°C
17/03/19 03:50 EGAA 170350Z AUTO 25013KT 9999 NCD 01/M01 Q0997 WSW (250°) 15.0mph 1°C -1°C
17/03/19 02:50 EGAA 170250Z 25011KT CAVOK 01/M00 Q0996 WSW (250°) 12.7mph 1°C 0°C
17/03/19 02:20 EGAA 170220Z 25014KT 9999 FEW006 01/00 Q0996 WSW (250°) 16.1mph 1°C 0°C
17/03/19 01:50 EGAA 170150Z 25013KT 230V300 9999 FEW015 02/00 Q0996 WSW (250°) 15.0mph 2°C 0°C
17/03/19 01:20 EGAA 170120Z 28011KT 9999 FEW008 SCT013 BKN046 02/01 Q0996 RERA W (280°) 12.7mph 2°C 1°C
17/03/19 00:50 EGAA 170050Z 29012KT 5000 -RA FEW006 BKN012 BKN022 03/01 Q0996 -RA WNW (290°) 13.8mph 3°C 1°C
17/03/19 00:20 EGAA 170020Z 26012KT 240V300 9999 FEW021 SCT028 BKN037 02/01 Q0995 W (260°) 13.8mph 2°C 1°C
16/03/19 23:50 EGAA 162350Z 23007KT 9999 FEW017 SCT023 BKN029 02/01 Q0995 SW (230°) 8.1mph 2°C 1°C
16/03/19 23:20 EGAA 162320Z 24007KT 9999 FEW008 SCT030 02/00 Q0995 WSW (240°) 8.1mph 2°C 0°C
16/03/19 22:50 EGAA 162250Z 29011KT 270V340 9999 -RA BKN008 BKN017 03/01 Q0995 -RA WNW (290°) 12.7mph 3°C 1°C
16/03/19 22:20 EGAA 162220Z 26010KT 9999 FEW018 SCT025 BKN031 03/01 Q0994 W (260°) 11.5mph 3°C 1°C
16/03/19 21:50 EGAA 162150Z 29010KT 9999 FEW011 SCT015 BKN025 03/01 Q0994 RERA WNW (290°) 11.5mph 3°C 1°C
16/03/19 21:20 EGAA 162120Z 28010KT 9999 FEW008 SCT033 BKN047 02/01 Q0994 W (280°) 11.5mph 2°C 1°C
16/03/19 20:50 EGAA 162050Z 28014KT 9000 -RA SCT009 BKN014 BKN020 03/01 Q0994 -RA W (280°) 16.1mph 3°C 1°C
16/03/19 20:20 EGAA 162020Z 28014KT 9999 -RA FEW009 BKN013 BKN018 03/01 Q0993 -RA W (280°) 16.1mph 3°C 1°C
16/03/19 19:50 EGAA 161950Z 28013KT 9999 FEW012 SCT016 BKN033 04/02 Q0992 W (280°) 15.0mph 4°C 2°C
16/03/19 19:20 EGAA 161920Z 27012KT 9999 SCT028 03/02 Q0992 W (270°) 13.8mph 3°C 2°C
16/03/19 18:50 EGAA 161850Z 29011KT 9999 -RA FEW010 BKN015 BKN028 04/02 Q0991 -RA WNW (290°) 12.7mph 4°C 2°C
16/03/19 18:20 EGAA 161820Z 28011KT 9999 FEW018 BKN023 04/02 Q0991 W (280°) 12.7mph 4°C 2°C
16/03/19 17:50 EGAA 161750Z 29012KT 9999 SCT013 BKN026 04/02 Q0991 WNW (290°) 13.8mph 4°C 2°C
16/03/19 17:20 EGAA 161720Z 31012KT 280V340 9999 -RA FEW012 BKN016 05/03 Q0990 -RA NW (310°) 13.8mph 5°C 3°C
16/03/19 16:50 EGAA 161650Z 30010KT 9999 SCT008 BKN014 05/03 Q0989 WNW (300°) 11.5mph 5°C 3°C
16/03/19 16:20 EGAA 161620Z 29014KT 9999 BKN017 BKN023 07/03 Q0989 WNW (290°) 16.1mph 7°C 3°C
16/03/19 15:50 EGAA 161550Z 30016KT 9999 SCT016 BKN023 06/03 Q0988 WNW (300°) 18.4mph 6°C 3°C
16/03/19 15:20 EGAA 161520Z 30010KT 9999 SCT013 BKN018 06/03 Q0988 WNW (300°) 11.5mph 6°C 3°C
16/03/19 14:20 EGAA 161420Z 31013KT 9999 BKN013 05/03 Q0986 NW (310°) 15.0mph 5°C 3°C
16/03/19 13:50 EGAA 161350Z 30016KT 9999 SCT009 BKN013 BKN018 05/04 Q0986 WNW (300°) 18.4mph 5°C 4°C
16/03/19 13:20 EGAA 161320Z 31015KT 9999 SCT008 BKN015 BKN033 05/04 Q0985 NW (310°) 17.3mph 5°C 4°C
16/03/19 12:50 EGAA 161250Z 30014KT 9999 BKN010 BKN015 06/05 Q0984 WNW (300°) 16.1mph 6°C 5°C
16/03/19 12:20 EGAA 161220Z 26019KT 9999 FEW006 SCT010 BKN028 08/07 Q0983 W (260°) 21.9mph 8°C 7°C
16/03/19 11:50 EGAA 161150Z 23018KT 8000 -RA FEW010 BKN019 10/09 Q0983 -RA SW (230°) 20.7mph 10°C 9°C
16/03/19 11:20 EGAA 161120Z 23017G27KT 9999 BKN017 BKN029 11/09 Q0983 SW (230°) 19.6mph 31.1mph 11°C 9°C